sensor_id;sensor_type;location;lat;lon;timestamp;temperature;humidity
23283;DHT22;11810;51.178;3.878;2022-08-02T00:00:22;18.90;99.90
23283;DHT22;11810;51.178;3.878;2022-08-02T00:02:48;18.90;99.90
23283;DHT22;11810;51.178;3.878;2022-08-02T00:05:14;18.80;99.90
23283;DHT22;11810;51.178;3.878;2022-08-02T00:07:41;18.50;99.90
23283;DHT22;11810;51.178;3.878;2022-08-02T00:10:09;18.50;99.90
23283;DHT22;11810;51.178;3.878;2022-08-02T00:12:35;18.30;99.90
23283;DHT22;11810;51.178;3.878;2022-08-02T00:15:01;18.20;99.90
23283;DHT22;11810;51.178;3.878;2022-08-02T00:17:27;18.40;99.90
23283;DHT22;11810;51.178;3.878;2022-08-02T00:19:53;18.30;99.90
23283;DHT22;11810;51.178;3.878;2022-08-02T00:22:19;18.30;99.90
23283;DHT22;11810;51.178;3.878;2022-08-02T00:24:45;18.20;99.90
23283;DHT22;11810;51.178;3.878;2022-08-02T00:27:11;18.20;99.90
23283;DHT22;11810;51.178;3.878;2022-08-02T00:29:37;18.20;99.90
23283;DHT22;11810;51.178;3.878;2022-08-02T00:32:03;18.10;99.90
23283;DHT22;11810;51.178;3.878;2022-08-02T00:34:29;18.10;99.90
23283;DHT22;11810;51.178;3.878;2022-08-02T00:36:55;18.10;99.90
23283;DHT22;11810;51.178;3.878;2022-08-02T00:39:21;18.00;99.90
23283;DHT22;11810;51.178;3.878;2022-08-02T00:41:50;18.00;99.90
23283;DHT22;11810;51.178;3.878;2022-08-02T00:44:18;18.00;99.90
23283;DHT22;11810;51.178;3.878;2022-08-02T00:46:45;18.10;99.90
23283;DHT22;11810;51.178;3.878;2022-08-02T00:49:11;18.10;99.90
23283;DHT22;11810;51.178;3.878;2022-08-02T00:51:38;18.10;99.90
23283;DHT22;11810;51.178;3.878;2022-08-02T00:54:05;18.20;99.90
23283;DHT22;11810;51.178;3.878;2022-08-02T00:56:31;18.30;99.90
23283;DHT22;11810;51.178;3.878;2022-08-02T00:58:57;18.40;99.90
23283;DHT22;11810;51.178;3.878;2022-08-02T01:01:23;18.50;99.90
23283;DHT22;11810;51.178;3.878;2022-08-02T01:04:10;18.50;99.90
23283;DHT22;11810;51.178;3.878;2022-08-02T01:06:37;18.60;99.90
23283;DHT22;11810;51.178;3.878;2022-08-02T01:09:04;18.50;99.90
23283;DHT22;11810;51.178;3.878;2022-08-02T01:11:31;18.60;99.90
23283;DHT22;11810;51.178;3.878;2022-08-02T01:14:10;18.60;99.90
23283;DHT22;11810;51.178;3.878;2022-08-02T01:16:43;18.50;99.90
23283;DHT22;11810;51.178;3.878;2022-08-02T01:22:19;18.50;99.90
23283;DHT22;11810;51.178;3.878;2022-08-02T01:30:29;18.50;99.90
23283;DHT22;11810;51.178;3.878;2022-08-02T01:32:59;18.60;99.90
23283;DHT22;11810;51.178;3.878;2022-08-02T01:35:52;18.70;99.90
23283;DHT22;11810;51.178;3.878;2022-08-02T01:38:32;18.80;99.90
23283;DHT22;11810;51.178;3.878;2022-08-02T01:41:01;18.70;99.90
23283;DHT22;11810;51.178;3.878;2022-08-02T01:43:29;18.70;99.90
23283;DHT22;11810;51.178;3.878;2022-08-02T01:47:56;18.80;99.90
23283;DHT22;11810;51.178;3.878;2022-08-02T01:50:27;18.80;99.90
23283;DHT22;11810;51.178;3.878;2022-08-02T01:52:57;18.80;99.90
23283;DHT22;11810;51.178;3.878;2022-08-02T01:55:28;18.90;99.90
23283;DHT22;11810;51.178;3.878;2022-08-02T01:57:57;18.80;99.90
23283;DHT22;11810;51.178;3.878;2022-08-02T02:00:28;18.60;99.90
23283;DHT22;11810;51.178;3.878;2022-08-02T02:02:56;18.60;99.90
23283;DHT22;11810;51.178;3.878;2022-08-02T02:05:25;18.50;99.90
23283;DHT22;11810;51.178;3.878;2022-08-02T02:07:54;18.40;99.90
23283;DHT22;11810;51.178;3.878;2022-08-02T02:10:29;18.30;99.90
23283;DHT22;11810;51.178;3.878;2022-08-02T02:12:57;18.20;99.90
23283;DHT22;11810;51.178;3.878;2022-08-02T02:15:24;18.00;99.90
23283;DHT22;11810;51.178;3.878;2022-08-02T02:17:52;17.90;99.90
23283;DHT22;11810;51.178;3.878;2022-08-02T02:20:19;17.90;99.90
23283;DHT22;11810;51.178;3.878;2022-08-02T02:22:46;17.90;99.90
23283;DHT22;11810;51.178;3.878;2022-08-02T02:25:14;17.90;99.90
23283;DHT22;11810;51.178;3.878;2022-08-02T02:27:54;18.00;99.90
23283;DHT22;11810;51.178;3.878;2022-08-02T02:30:22;18.10;99.90
23283;DHT22;11810;51.178;3.878;2022-08-02T02:32:52;18.00;99.90
23283;DHT22;11810;51.178;3.878;2022-08-02T02:35:21;18.10;99.90
23283;DHT22;11810;51.178;3.878;2022-08-02T02:37:48;18.10;99.90
23283;DHT22;11810;51.178;3.878;2022-08-02T02:40:16;18.10;99.90
23283;DHT22;11810;51.178;3.878;2022-08-02T02:42:43;18.20;99.90
23283;DHT22;11810;51.178;3.878;2022-08-02T02:45:10;18.20;99.90
23283;DHT22;11810;51.178;3.878;2022-08-02T02:47:37;18.30;99.90
23283;DHT22;11810;51.178;3.878;2022-08-02T02:50:05;18.30;99.90
23283;DHT22;11810;51.178;3.878;2022-08-02T02:52:31;18.20;99.90
23283;DHT22;11810;51.178;3.878;2022-08-02T02:54:58;18.20;99.90
23283;DHT22;11810;51.178;3.878;2022-08-02T02:57:24;18.30;99.90
23283;DHT22;11810;51.178;3.878;2022-08-02T02:59:51;18.30;99.90
23283;DHT22;11810;51.178;3.878;2022-08-02T03:02:19;18.20;99.90
23283;DHT22;11810;51.178;3.878;2022-08-02T03:04:46;18.10;99.90
23283;DHT22;11810;51.178;3.878;2022-08-02T03:07:12;18.00;99.90
23283;DHT22;11810;51.178;3.878;2022-08-02T03:09:38;18.10;99.90
23283;DHT22;11810;51.178;3.878;2022-08-02T03:12:04;18.00;99.90
23283;DHT22;11810;51.178;3.878;2022-08-02T03:14:30;18.00;99.90
23283;DHT22;11810;51.178;3.878;2022-08-02T03:16:56;17.90;99.90
23283;DHT22;11810;51.178;3.878;2022-08-02T03:19:23;17.80;99.90
23283;DHT22;11810;51.178;3.878;2022-08-02T03:21:49;17.70;99.90
23283;DHT22;11810;51.178;3.878;2022-08-02T03:24:15;17.80;99.90
23283;DHT22;11810;51.178;3.878;2022-08-02T03:26:42;17.80;99.90
23283;DHT22;11810;51.178;3.878;2022-08-02T03:29:08;17.70;99.90
23283;DHT22;11810;51.178;3.878;2022-08-02T03:31:35;17.80;99.90
23283;DHT22;11810;51.178;3.878;2022-08-02T03:34:04;17.70;99.90
23283;DHT22;11810;51.178;3.878;2022-08-02T03:36:31;17.70;99.90
23283;DHT22;11810;51.178;3.878;2022-08-02T03:38:59;17.70;99.90
23283;DHT22;11810;51.178;3.878;2022-08-02T03:41:27;17.60;99.90
23283;DHT22;11810;51.178;3.878;2022-08-02T03:43:54;17.60;99.90
23283;DHT22;11810;51.178;3.878;2022-08-02T03:46:23;17.50;99.90
23283;DHT22;11810;51.178;3.878;2022-08-02T03:48:50;17.50;99.90
23283;DHT22;11810;51.178;3.878;2022-08-02T03:51:18;17.30;99.90
23283;DHT22;11810;51.178;3.878;2022-08-02T03:53:44;17.30;99.90
23283;DHT22;11810;51.178;3.878;2022-08-02T03:56:10;17.30;99.90
23283;DHT22;11810;51.178;3.878;2022-08-02T03:58:37;17.20;99.90
23283;DHT22;11810;51.178;3.878;2022-08-02T04:01:03;17.30;99.90
23283;DHT22;11810;51.178;3.878;2022-08-02T04:03:29;17.20;99.90
23283;DHT22;11810;51.178;3.878;2022-08-02T04:05:54;17.10;99.90
23283;DHT22;11810;51.178;3.878;2022-08-02T04:08:20;17.10;99.90
23283;DHT22;11810;51.178;3.878;2022-08-02T04:10:46;17.00;99.90
23283;DHT22;11810;51.178;3.878;2022-08-02T04:13:36;17.00;99.90
23283;DHT22;11810;51.178;3.878;2022-08-02T04:16:22;17.10;99.90
23283;DHT22;11810;51.178;3.878;2022-08-02T04:18:55;17.10;99.90
23283;DHT22;11810;51.178;3.878;2022-08-02T04:21:24;17.10;99.90
23283;DHT22;11810;51.178;3.878;2022-08-02T04:23:52;17.10;99.90
23283;DHT22;11810;51.178;3.878;2022-08-02T04:26:19;17.20;99.90
23283;DHT22;11810;51.178;3.878;2022-08-02T04:28:47;17.10;99.90
23283;DHT22;11810;51.178;3.878;2022-08-02T04:31:15;17.10;99.90
23283;DHT22;11810;51.178;3.878;2022-08-02T04:33:41;17.10;99.90
23283;DHT22;11810;51.178;3.878;2022-08-02T04:36:08;17.10;99.90
23283;DHT22;11810;51.178;3.878;2022-08-02T04:38:36;17.10;99.90
23283;DHT22;11810;51.178;3.878;2022-08-02T04:41:02;17.20;99.90
23283;DHT22;11810;51.178;3.878;2022-08-02T04:43:28;17.20;99.90
23283;DHT22;11810;51.178;3.878;2022-08-02T04:45:54;17.20;99.90
23283;DHT22;11810;51.178;3.878;2022-08-02T04:48:21;17.20;99.90
23283;DHT22;11810;51.178;3.878;2022-08-02T04:50:47;17.30;99.90
23283;DHT22;11810;51.178;3.878;2022-08-02T04:53:13;17.30;99.90
23283;DHT22;11810;51.178;3.878;2022-08-02T04:55:39;17.30;99.90
23283;DHT22;11810;51.178;3.878;2022-08-02T04:58:05;17.30;99.90
23283;DHT22;11810;51.178;3.878;2022-08-02T05:00:31;17.40;99.90
23283;DHT22;11810;51.178;3.878;2022-08-02T05:02:58;17.40;99.90
23283;DHT22;11810;51.178;3.878;2022-08-02T05:05:25;17.50;99.90
23283;DHT22;11810;51.178;3.878;2022-08-02T05:07:51;17.60;99.90
23283;DHT22;11810;51.178;3.878;2022-08-02T05:10:18;17.90;99.90
23283;DHT22;11810;51.178;3.878;2022-08-02T05:12:44;18.10;99.90
23283;DHT22;11810;51.178;3.878;2022-08-02T05:15:13;18.20;99.90
23283;DHT22;11810;51.178;3.878;2022-08-02T05:17:41;18.30;99.90
23283;DHT22;11810;51.178;3.878;2022-08-02T05:20:08;18.30;99.90
23283;DHT22;11810;51.178;3.878;2022-08-02T05:22:34;18.40;99.90
23283;DHT22;11810;51.178;3.878;2022-08-02T05:25:00;18.40;99.90
23283;DHT22;11810;51.178;3.878;2022-08-02T05:27:25;18.50;99.90
23283;DHT22;11810;51.178;3.878;2022-08-02T05:29:52;18.70;99.90
23283;DHT22;11810;51.178;3.878;2022-08-02T05:32:19;18.90;99.90
23283;DHT22;11810;51.178;3.878;2022-08-02T05:34:45;19.30;99.90
23283;DHT22;11810;51.178;3.878;2022-08-02T05:37:11;19.70;99.90
23283;DHT22;11810;51.178;3.878;2022-08-02T05:39:37;20.00;99.90
23283;DHT22;11810;51.178;3.878;2022-08-02T05:42:03;20.50;99.90
23283;DHT22;11810;51.178;3.878;2022-08-02T05:44:29;21.00;99.90
23283;DHT22;11810;51.178;3.878;2022-08-02T05:46:55;21.10;99.90
23283;DHT22;11810;51.178;3.878;2022-08-02T05:49:21;21.60;99.90
23283;DHT22;11810;51.178;3.878;2022-08-02T05:54:40;22.40;99.90
23283;DHT22;11810;51.178;3.878;2022-08-02T05:57:25;22.60;99.90
23283;DHT22;11810;51.178;3.878;2022-08-02T06:00:08;22.90;99.90
23283;DHT22;11810;51.178;3.878;2022-08-02T06:03:20;23.10;99.90
23283;DHT22;11810;51.178;3.878;2022-08-02T06:05:49;23.50;99.90
23283;DHT22;11810;51.178;3.878;2022-08-02T06:08:16;24.00;99.90
23283;DHT22;11810;51.178;3.878;2022-08-02T06:10:44;24.40;99.90
23283;DHT22;11810;51.178;3.878;2022-08-02T06:13:12;24.80;99.90
23283;DHT22;11810;51.178;3.878;2022-08-02T06:15:39;25.10;99.90
23283;DHT22;11810;51.178;3.878;2022-08-02T06:18:06;25.10;99.90
23283;DHT22;11810;51.178;3.878;2022-08-02T06:20:34;25.30;99.90
23283;DHT22;11810;51.178;3.878;2022-08-02T06:23:07;25.30;99.90
23283;DHT22;11810;51.178;3.878;2022-08-02T06:25:35;25.60;99.90
23283;DHT22;11810;51.178;3.878;2022-08-02T06:28:04;25.70;99.90
23283;DHT22;11810;51.178;3.878;2022-08-02T06:30:31;25.30;99.90
23283;DHT22;11810;51.178;3.878;2022-08-02T06:32:58;25.40;99.90
23283;DHT22;11810;51.178;3.878;2022-08-02T06:35:34;25.20;99.90
23283;DHT22;11810;51.178;3.878;2022-08-02T06:38:07;25.00;99.90
23283;DHT22;11810;51.178;3.878;2022-08-02T06:40:48;25.20;99.90
23283;DHT22;11810;51.178;3.878;2022-08-02T06:43:31;25.40;99.90
23283;DHT22;11810;51.178;3.878;2022-08-02T06:45:59;24.60;99.90
23283;DHT22;11810;51.178;3.878;2022-08-02T06:48:26;24.80;99.90
23283;DHT22;11810;51.178;3.878;2022-08-02T06:50:51;25.00;99.90
23283;DHT22;11810;51.178;3.878;2022-08-02T06:53:18;25.30;99.90
23283;DHT22;11810;51.178;3.878;2022-08-02T06:55:43;25.50;99.90
23283;DHT22;11810;51.178;3.878;2022-08-02T06:58:11;26.00;99.90
23283;DHT22;11810;51.178;3.878;2022-08-02T07:00:37;26.90;99.90
23283;DHT22;11810;51.178;3.878;2022-08-02T07:03:04;27.40;99.90
23283;DHT22;11810;51.178;3.878;2022-08-02T07:05:30;27.20;99.90
23283;DHT22;11810;51.178;3.878;2022-08-02T07:07:56;27.50;99.90
23283;DHT22;11810;51.178;3.878;2022-08-02T07:10:22;27.30;99.90
23283;DHT22;11810;51.178;3.878;2022-08-02T07:12:48;27.70;99.90
23283;DHT22;11810;51.178;3.878;2022-08-02T07:15:14;27.20;99.90
23283;DHT22;11810;51.178;3.878;2022-08-02T07:17:41;26.60;99.90
23283;DHT22;11810;51.178;3.878;2022-08-02T07:20:07;26.20;99.90
23283;DHT22;11810;51.178;3.878;2022-08-02T07:22:34;26.00;99.90
23283;DHT22;11810;51.178;3.878;2022-08-02T07:25:01;25.90;99.90
23283;DHT22;11810;51.178;3.878;2022-08-02T07:27:27;25.90;99.90
23283;DHT22;11810;51.178;3.878;2022-08-02T07:29:54;25.80;99.90
23283;DHT22;11810;51.178;3.878;2022-08-02T07:32:28;25.80;99.90
23283;DHT22;11810;51.178;3.878;2022-08-02T07:34:54;26.40;99.90
23283;DHT22;11810;51.178;3.878;2022-08-02T07:37:23;26.60;99.90
23283;DHT22;11810;51.178;3.878;2022-08-02T07:39:49;26.30;99.90
23283;DHT22;11810;51.178;3.878;2022-08-02T07:42:15;26.00;99.90
23283;DHT22;11810;51.178;3.878;2022-08-02T07:44:41;25.80;99.90
23283;DHT22;11810;51.178;3.878;2022-08-02T07:47:07;25.60;99.90
23283;DHT22;11810;51.178;3.878;2022-08-02T07:49:33;25.80;99.90
23283;DHT22;11810;51.178;3.878;2022-08-02T07:51:58;26.50;99.90
23283;DHT22;11810;51.178;3.878;2022-08-02T07:54:24;27.80;99.90
23283;DHT22;11810;51.178;3.878;2022-08-02T07:56:50;29.10;99.90
23283;DHT22;11810;51.178;3.878;2022-08-02T07:59:19;29.40;99.90
23283;DHT22;11810;51.178;3.878;2022-08-02T08:01:45;29.00;99.90
23283;DHT22;11810;51.178;3.878;2022-08-02T08:04:11;29.60;99.90
23283;DHT22;11810;51.178;3.878;2022-08-02T08:06:37;29.80;99.90
23283;DHT22;11810;51.178;3.878;2022-08-02T08:09:03;29.20;99.90
23283;DHT22;11810;51.178;3.878;2022-08-02T08:11:29;28.10;99.90
23283;DHT22;11810;51.178;3.878;2022-08-02T08:13:55;27.30;99.90
23283;DHT22;11810;51.178;3.878;2022-08-02T08:16:20;27.00;99.90
23283;DHT22;11810;51.178;3.878;2022-08-02T08:18:46;27.30;99.90
23283;DHT22;11810;51.178;3.878;2022-08-02T08:21:12;27.40;99.90
23283;DHT22;11810;51.178;3.878;2022-08-02T08:23:38;27.90;99.90
23283;DHT22;11810;51.178;3.878;2022-08-02T08:26:04;29.20;99.90
23283;DHT22;11810;51.178;3.878;2022-08-02T08:28:30;29.90;99.90
23283;DHT22;11810;51.178;3.878;2022-08-02T08:30:56;29.80;99.90
23283;DHT22;11810;51.178;3.878;2022-08-02T08:33:22;30.30;99.90
23283;DHT22;11810;51.178;3.878;2022-08-02T08:35:48;29.70;99.90
23283;DHT22;11810;51.178;3.878;2022-08-02T08:38:14;30.10;99.90
23283;DHT22;11810;51.178;3.878;2022-08-02T08:40:41;30.10;99.90
23283;DHT22;11810;51.178;3.878;2022-08-02T08:43:07;30.60;99.90
23283;DHT22;11810;51.178;3.878;2022-08-02T08:45:33;30.90;99.90
23283;DHT22;11810;51.178;3.878;2022-08-02T08:48:12;31.00;99.90
23283;DHT22;11810;51.178;3.878;2022-08-02T08:50:56;30.40;99.90
23283;DHT22;11810;51.178;3.878;2022-08-02T08:53:29;30.10;99.90
23283;DHT22;11810;51.178;3.878;2022-08-02T08:55:56;30.90;99.90
23283;DHT22;11810;51.178;3.878;2022-08-02T08:58:23;30.50;99.90
23283;DHT22;11810;51.178;3.878;2022-08-02T09:00:50;31.00;99.90
23283;DHT22;11810;51.178;3.878;2022-08-02T09:03:16;31.70;99.90
23283;DHT22;11810;51.178;3.878;2022-08-02T09:05:42;32.40;99.90
23283;DHT22;11810;51.178;3.878;2022-08-02T09:08:11;33.40;99.90
23283;DHT22;11810;51.178;3.878;2022-08-02T09:15:43;32.50;99.90
23283;DHT22;11810;51.178;3.878;2022-08-02T09:18:11;32.00;99.90
23283;DHT22;11810;51.178;3.878;2022-08-02T09:20:54;31.70;99.90
23283;DHT22;11810;51.178;3.878;2022-08-02T09:23:25;32.10;99.90
23283;DHT22;11810;51.178;3.878;2022-08-02T09:26:02;32.00;99.90
23283;DHT22;11810;51.178;3.878;2022-08-02T09:28:31;31.40;99.90
23283;DHT22;11810;51.178;3.878;2022-08-02T09:31:07;31.30;99.90
23283;DHT22;11810;51.178;3.878;2022-08-02T09:33:35;30.70;99.90
23283;DHT22;11810;51.178;3.878;2022-08-02T09:36:17;30.30;99.90
23283;DHT22;11810;51.178;3.878;2022-08-02T09:38:58;30.90;99.90
23283;DHT22;11810;51.178;3.878;2022-08-02T09:41:29;32.00;99.90
23283;DHT22;11810;51.178;3.878;2022-08-02T09:43:56;32.60;99.90
23283;DHT22;11810;51.178;3.878;2022-08-02T09:46:28;33.10;99.90
23283;DHT22;11810;51.178;3.878;2022-08-02T09:48:59;33.50;99.90
23283;DHT22;11810;51.178;3.878;2022-08-02T09:51:27;33.20;99.90
23283;DHT22;11810;51.178;3.878;2022-08-02T09:53:55;32.20;99.90
23283;DHT22;11810;51.178;3.878;2022-08-02T09:56:23;31.50;99.90
23283;DHT22;11810;51.178;3.878;2022-08-02T09:58:50;31.40;99.90
23283;DHT22;11810;51.178;3.878;2022-08-02T10:01:20;31.10;99.90
23283;DHT22;11810;51.178;3.878;2022-08-02T10:03:54;31.10;99.90
23283;DHT22;11810;51.178;3.878;2022-08-02T10:06:20;31.20;99.90
23283;DHT22;11810;51.178;3.878;2022-08-02T10:08:46;30.70;99.90
23283;DHT22;11810;51.178;3.878;2022-08-02T10:11:13;31.10;99.90
23283;DHT22;11810;51.178;3.878;2022-08-02T10:13:39;31.60;99.90
23283;DHT22;11810;51.178;3.878;2022-08-02T10:16:05;32.60;99.90
23283;DHT22;11810;51.178;3.878;2022-08-02T10:18:32;32.90;99.90
23283;DHT22;11810;51.178;3.878;2022-08-02T10:21:00;33.00;99.90
23283;DHT22;11810;51.178;3.878;2022-08-02T10:23:28;32.90;99.90
23283;DHT22;11810;51.178;3.878;2022-08-02T10:25:56;33.30;99.90
23283;DHT22;11810;51.178;3.878;2022-08-02T10:28:26;34.40;99.90
23283;DHT22;11810;51.178;3.878;2022-08-02T10:31:04;33.80;99.90
23283;DHT22;11810;51.178;3.878;2022-08-02T10:33:34;32.70;99.90
23283;DHT22;11810;51.178;3.878;2022-08-02T10:36:01;32.30;99.90
23283;DHT22;11810;51.178;3.878;2022-08-02T10:38:29;33.00;99.90
23283;DHT22;11810;51.178;3.878;2022-08-02T10:40:56;33.90;99.90
23283;DHT22;11810;51.178;3.878;2022-08-02T10:43:40;34.60;99.90
23283;DHT22;11810;51.178;3.878;2022-08-02T10:46:33;34.30;99.00
23283;DHT22;11810;51.178;3.878;2022-08-02T10:49:12;33.50;99.90
23283;DHT22;11810;51.178;3.878;2022-08-02T10:56:55;34.00;99.90
23283;DHT22;11810;51.178;3.878;2022-08-02T10:59:31;34.80;99.30
23283;DHT22;11810;51.178;3.878;2022-08-02T11:01:59;35.00;98.80
23283;DHT22;11810;51.178;3.878;2022-08-02T11:09:35;35.20;98.00
23283;DHT22;11810;51.178;3.878;2022-08-02T11:12:13;35.70;97.00
23283;DHT22;11810;51.178;3.878;2022-08-02T11:14:42;35.90;97.40
23283;DHT22;11810;51.178;3.878;2022-08-02T11:17:18;37.20;95.70
23283;DHT22;11810;51.178;3.878;2022-08-02T11:22:42;37.10;94.90
23283;DHT22;11810;51.178;3.878;2022-08-02T11:27:54;38.20;95.00
23283;DHT22;11810;51.178;3.878;2022-08-02T11:30:20;38.20;94.00
23283;DHT22;11810;51.178;3.878;2022-08-02T11:32:47;37.50;94.10
23283;DHT22;11810;51.178;3.878;2022-08-02T11:35:14;37.10;93.80
23283;DHT22;11810;51.178;3.878;2022-08-02T11:37:42;36.40;93.70
23283;DHT22;11810;51.178;3.878;2022-08-02T11:40:17;35.80;94.30
23283;DHT22;11810;51.178;3.878;2022-08-02T11:42:45;35.70;94.70
23283;DHT22;11810;51.178;3.878;2022-08-02T11:45:13;34.70;96.50
23283;DHT22;11810;51.178;3.878;2022-08-02T11:47:52;34.50;97.00
23283;DHT22;11810;51.178;3.878;2022-08-02T11:50:20;34.30;96.90
23283;DHT22;11810;51.178;3.878;2022-08-02T11:52:49;33.90;96.90
23283;DHT22;11810;51.178;3.878;2022-08-02T11:55:26;33.80;97.70
23283;DHT22;11810;51.178;3.878;2022-08-02T11:58:00;33.50;97.90
23283;DHT22;11810;51.178;3.878;2022-08-02T12:00:26;33.20;99.00
23283;DHT22;11810;51.178;3.878;2022-08-02T12:02:52;33.10;99.90
23283;DHT22;11810;51.178;3.878;2022-08-02T12:05:20;33.50;99.90
23283;DHT22;11810;51.178;3.878;2022-08-02T12:07:47;33.60;99.70
23283;DHT22;11810;51.178;3.878;2022-08-02T12:10:18;33.60;99.80
23283;DHT22;11810;51.178;3.878;2022-08-02T12:12:57;34.20;99.40
23283;DHT22;11810;51.178;3.878;2022-08-02T12:15:39;34.70;99.40
23283;DHT22;11810;51.178;3.878;2022-08-02T12:18:17;35.10;99.10
23283;DHT22;11810;51.178;3.878;2022-08-02T12:21:02;34.90;99.10
23283;DHT22;11810;51.178;3.878;2022-08-02T12:23:29;34.10;99.80
23283;DHT22;11810;51.178;3.878;2022-08-02T12:26:05;34.70;99.50
23283;DHT22;11810;51.178;3.878;2022-08-02T12:28:36;34.60;99.60
23283;DHT22;11810;51.178;3.878;2022-08-02T12:31:07;34.90;99.60
23283;DHT22;11810;51.178;3.878;2022-08-02T12:33:52;35.30;99.60
23283;DHT22;11810;51.178;3.878;2022-08-02T12:36:23;35.20;99.40
23283;DHT22;11810;51.178;3.878;2022-08-02T12:38:58;35.10;99.40
23283;DHT22;11810;51.178;3.878;2022-08-02T12:41:24;35.70;99.50
23283;DHT22;11810;51.178;3.878;2022-08-02T12:43:51;35.10;99.50
23283;DHT22;11810;51.178;3.878;2022-08-02T12:46:19;34.80;99.30
23283;DHT22;11810;51.178;3.878;2022-08-02T12:48:46;34.50;99.60
23283;DHT22;11810;51.178;3.878;2022-08-02T12:51:24;35.20;99.50
23283;DHT22;11810;51.178;3.878;2022-08-02T12:53:52;35.60;99.50
23283;DHT22;11810;51.178;3.878;2022-08-02T12:56:29;35.30;98.60
23283;DHT22;11810;51.178;3.878;2022-08-02T12:58:55;34.80;99.50
23283;DHT22;11810;51.178;3.878;2022-08-02T13:01:24;34.80;99.80
23283;DHT22;11810;51.178;3.878;2022-08-02T13:03:51;34.90;99.10
23283;DHT22;11810;51.178;3.878;2022-08-02T13:06:18;34.30;99.90
23283;DHT22;11810;51.178;3.878;2022-08-02T13:08:45;34.00;99.90
23283;DHT22;11810;51.178;3.878;2022-08-02T13:11:11;33.90;99.90
23283;DHT22;11810;51.178;3.878;2022-08-02T13:13:37;34.10;99.90
23283;DHT22;11810;51.178;3.878;2022-08-02T13:16:03;34.20;99.90
23283;DHT22;11810;51.178;3.878;2022-08-02T13:18:29;34.50;99.90
23283;DHT22;11810;51.178;3.878;2022-08-02T13:20:55;33.90;99.90
23283;DHT22;11810;51.178;3.878;2022-08-02T13:23:21;33.70;99.90
23283;DHT22;11810;51.178;3.878;2022-08-02T13:25:49;33.90;99.90
23283;DHT22;11810;51.178;3.878;2022-08-02T13:28:15;34.00;99.90
23283;DHT22;11810;51.178;3.878;2022-08-02T13:30:41;33.70;99.90
23283;DHT22;11810;51.178;3.878;2022-08-02T13:33:07;33.40;99.90
23283;DHT22;11810;51.178;3.878;2022-08-02T13:35:33;33.40;99.90
23283;DHT22;11810;51.178;3.878;2022-08-02T13:37:59;33.90;99.90
23283;DHT22;11810;51.178;3.878;2022-08-02T13:40:29;34.40;99.90
23283;DHT22;11810;51.178;3.878;2022-08-02T13:42:54;34.20;99.90
23283;DHT22;11810;51.178;3.878;2022-08-02T13:45:20;34.10;99.90
23283;DHT22;11810;51.178;3.878;2022-08-02T13:47:46;34.00;99.90
23283;DHT22;11810;51.178;3.878;2022-08-02T13:50:14;33.90;99.90
23283;DHT22;11810;51.178;3.878;2022-08-02T13:52:40;34.00;99.90
23283;DHT22;11810;51.178;3.878;2022-08-02T13:55:06;33.80;99.90
23283;DHT22;11810;51.178;3.878;2022-08-02T13:57:32;34.00;99.90
23283;DHT22;11810;51.178;3.878;2022-08-02T13:59:58;34.30;99.90
23283;DHT22;11810;51.178;3.878;2022-08-02T14:02:25;34.10;99.90
23283;DHT22;11810;51.178;3.878;2022-08-02T14:04:52;33.40;99.90
23283;DHT22;11810;51.178;3.878;2022-08-02T14:07:19;33.60;99.90
23283;DHT22;11810;51.178;3.878;2022-08-02T14:09:45;34.00;99.90
23283;DHT22;11810;51.178;3.878;2022-08-02T14:12:11;34.00;99.90
23283;DHT22;11810;51.178;3.878;2022-08-02T14:14:38;33.80;99.90
23283;DHT22;11810;51.178;3.878;2022-08-02T14:17:04;33.90;99.90
23283;DHT22;11810;51.178;3.878;2022-08-02T14:19:30;34.00;99.90
23283;DHT22;11810;51.178;3.878;2022-08-02T14:21:56;34.00;99.90
23283;DHT22;11810;51.178;3.878;2022-08-02T14:24:22;34.30;99.90
23283;DHT22;11810;51.178;3.878;2022-08-02T14:26:49;34.30;99.90
23283;DHT22;11810;51.178;3.878;2022-08-02T14:29:16;34.30;99.90
23283;DHT22;11810;51.178;3.878;2022-08-02T14:31:42;34.40;99.90
23283;DHT22;11810;51.178;3.878;2022-08-02T14:34:08;34.40;99.90
23283;DHT22;11810;51.178;3.878;2022-08-02T14:36:36;34.30;99.90
23283;DHT22;11810;51.178;3.878;2022-08-02T14:39:03;34.30;99.90
23283;DHT22;11810;51.178;3.878;2022-08-02T14:41:29;33.80;99.90
23283;DHT22;11810;51.178;3.878;2022-08-02T14:43:58;33.20;99.90
23283;DHT22;11810;51.178;3.878;2022-08-02T14:46:31;32.80;99.90
23283;DHT22;11810;51.178;3.878;2022-08-02T14:48:58;32.60;99.90
23283;DHT22;11810;51.178;3.878;2022-08-02T14:51:31;32.70;99.90
23283;DHT22;11810;51.178;3.878;2022-08-02T14:54:01;32.60;99.90
23283;DHT22;11810;51.178;3.878;2022-08-02T14:56:27;32.40;99.90
23283;DHT22;11810;51.178;3.878;2022-08-02T14:58:53;32.80;99.90
23283;DHT22;11810;51.178;3.878;2022-08-02T15:01:19;32.80;99.90
23283;DHT22;11810;51.178;3.878;2022-08-02T15:03:45;32.80;99.90
23283;DHT22;11810;51.178;3.878;2022-08-02T15:06:11;33.00;99.90
23283;DHT22;11810;51.178;3.878;2022-08-02T15:08:38;33.30;99.90
23283;DHT22;11810;51.178;3.878;2022-08-02T15:11:03;33.20;99.90
23283;DHT22;11810;51.178;3.878;2022-08-02T15:13:29;33.00;99.90
23283;DHT22;11810;51.178;3.878;2022-08-02T15:15:55;33.20;99.90
23283;DHT22;11810;51.178;3.878;2022-08-02T15:18:21;33.10;99.90
23283;DHT22;11810;51.178;3.878;2022-08-02T15:20:47;33.20;99.90
23283;DHT22;11810;51.178;3.878;2022-08-02T15:23:14;33.00;99.90
23283;DHT22;11810;51.178;3.878;2022-08-02T15:25:41;32.90;99.90
23283;DHT22;11810;51.178;3.878;2022-08-02T15:28:07;32.70;99.90
23283;DHT22;11810;51.178;3.878;2022-08-02T15:30:34;32.20;99.90
23283;DHT22;11810;51.178;3.878;2022-08-02T15:33:04;32.20;99.90
23283;DHT22;11810;51.178;3.878;2022-08-02T15:35:31;32.60;99.90
23283;DHT22;11810;51.178;3.878;2022-08-02T15:37:58;32.90;99.90
23283;DHT22;11810;51.178;3.878;2022-08-02T15:40:24;32.30;99.90
23283;DHT22;11810;51.178;3.878;2022-08-02T15:42:50;32.00;99.90
23283;DHT22;11810;51.178;3.878;2022-08-02T15:45:17;31.70;99.90
23283;DHT22;11810;51.178;3.878;2022-08-02T15:47:44;31.70;99.90
23283;DHT22;11810;51.178;3.878;2022-08-02T15:50:10;31.60;99.90
23283;DHT22;11810;51.178;3.878;2022-08-02T15:52:36;31.40;99.90
23283;DHT22;11810;51.178;3.878;2022-08-02T15:55:03;31.30;99.90
23283;DHT22;11810;51.178;3.878;2022-08-02T15:57:29;31.70;99.90
23283;DHT22;11810;51.178;3.878;2022-08-02T15:59:55;31.50;99.90
23283;DHT22;11810;51.178;3.878;2022-08-02T16:02:21;31.50;99.90
23283;DHT22;11810;51.178;3.878;2022-08-02T16:04:47;31.40;99.90
23283;DHT22;11810;51.178;3.878;2022-08-02T16:07:13;31.10;99.90
23283;DHT22;11810;51.178;3.878;2022-08-02T16:09:39;31.10;99.90
23283;DHT22;11810;51.178;3.878;2022-08-02T16:12:05;30.80;99.90